London, Canada
Current Conditions -  °F | °C
As of 1:00 PM on Thursday 30 Oct 2014 (Local Time) from CYXU Reporting Station
Overcast Overcast  
Wind Chill: 43°   Ceiling: 3000
Heat Index: 46°   Visibility: 15mi
Dew Point: 36°   Wind: 7mph
Humidity: 66%   Direction: 270°W
Pressure: 30.09"   Gusts: NA
Location:  42.99°N, 81.25°W
Report Text: CYXU 301700Z 27006KT 15SM BKN030 OVC220 08/02 A3009 RMK SC7CI1 SLP195
Loading
Personal Weather Stations






























Interactive Weather Map New forecast layout! Learn more

10-Day Weather Forecast

Advertisements
Track Severe Weather on mobile